Magic Star — DHBB2 — position and weather

sailwx.info

Track history (hours):
 
Tides and Currents Weather Stations Pressure Air Temp Water Temp Dewpoint Dewpoint Depression Visibility Wind Speed Wind Dir Waves Ship Positions

Magic Star

Last reported at 2017-Oct-21 10:20 UTC. Time now 2017-Dec-14 02:42 UTC.
Position N 27°55' W 016°11'.
Warning: this ship's position is 53 days out of date.

Length 17 m.

Type: Sailing vessel. MMSI: 211536060.

Date/timePositionNaut miles runAvg speedWind from/ knotsBaromVisibWave heightAir tempDewpointWater temp
2017-Oct-21 10:20N 27°55' W 016°11'32 1.6
2017-Oct-20 13:44N 28°01' W 016°47'1 4.3
2017-Oct-20 13:29N 28°02' W 016°48'15 4.8
2017-Oct-20 10:23N 28°05' W 017°05'  
2017-Oct-17 05:06N 28°46' W 015°38'4 8.2
2017-Oct-17 04:37N 28°46' W 015°34'3 7.5
2017-Oct-17 04:16N 28°46' W 015°31'2 7.6
2017-Oct-17 04:00N 28°46' W 015°29'6 7.6
2017-Oct-17 03:14N 28°47' W 015°22'2 7.7
2017-Oct-17 03:00N 28°47' W 015°20'4 8.1
2017-Oct-17 02:30N 28°47' W 015°15'4 7.6
2017-Oct-17 01:59N 28°47' W 015°11'3 5.7
2017-Oct-17 01:30N 28°47' W 015°08'3 5.4
2017-Oct-17 01:00N 28°47' W 015°05'3 5.0
2017-Oct-17 00:29N 28°47' W 015°02'2 4.9
2017-Oct-17 00:00N 28°48' W 014°59'2 4.7
2017-Oct-16 23:30N 28°48' W 014°56'2 4.6
2017-Oct-16 23:00N 28°48' W 014°54'2 4.8
2017-Oct-16 22:29N 28°48' W 014°51'3 5.1
2017-Oct-16 22:00N 28°49' W 014°48'2 4.8
2017-Oct-16 21:30N 28°49' W 014°45'2 4.4
2017-Oct-16 21:00N 28°49' W 014°43'2 4.8
2017-Oct-16 20:30N 28°49' W 014°40'3 5.4
2017-Oct-16 19:59N 28°50' W 014°37'3 5.8
2017-Oct-16 19:30N 28°50' W 014°34'3 5.3
2017-Oct-16 19:00N 28°50' W 014°31'3 5.3
2017-Oct-16 18:27N 28°50' W 014°27'3 5.8
2017-Oct-16 17:56N 28°50' W 014°24'3 5.9
2017-Oct-16 17:26N 28°50' W 014°21'2 5.4
2017-Oct-16 16:59N 28°50' W 014°18'3 5.1
2017-Oct-16 16:28N 28°50' W 014°15'4 5.3
2017-Oct-16 15:40N 28°50' W 014°10'1 5.6
2017-Oct-16 15:29N 28°50' W 014°09'3 5.6
2017-Oct-16 14:58N 28°50' W 014°06'15 2.6
2017-Oct-16 09:22N 28°51' W 013°49'0 0.0
2017-Oct-16 08:52N 28°51' W 013°49'0 0.0
2017-Oct-16 04:40N 28°51' W 013°49'0 0.0
2017-Oct-16 04:25N 28°51' W 013°49'0 0.0
2017-Oct-16 03:58N 28°51' W 013°49'0 0.0
2017-Oct-16 03:28N 28°51' W 013°49'0 0.0
2017-Oct-16 02:58N 28°51' W 013°49'0 0.0
2017-Oct-16 02:28N 28°51' W 013°49'0 0.0
2017-Oct-16 01:55N 28°51' W 013°49'0 0.0
2017-Oct-16 00:46N 28°51' W 013°49'0 0.0
2017-Oct-16 00:16N 28°51' W 013°49'0 0.0
2017-Oct-15 23:58N 28°51' W 013°49'0 0.0
2017-Oct-15 21:49N 28°51' W 013°49'0 0.0
2017-Oct-15 19:16N 28°51' W 013°49'0 0.0
2017-Oct-15 18:52N 28°51' W 013°49'0 0.0
2017-Oct-15 18:22N 28°51' W 013°49'0 0.0
2017-Oct-15 17:52N 28°51' W 013°49'0 0.0
2017-Oct-15 17:22N 28°51' W 013°49'0 0.0
2017-Oct-15 16:55N 28°51' W 013°49'7 1.1
2017-Oct-15 10:29N 28°52' W 013°41'4 6.1
2017-Oct-15 09:53N 28°54' W 013°37'2 6.0
2017-Oct-15 09:30N 28°55' W 013°35'3 5.8
2017-Oct-15 09:00N 28°57' W 013°32'3 6.1
2017-Oct-15 08:29N 28°58' W 013°29'3 6.4
2017-Oct-15 07:59N 29°01' W 013°26'3 6.3
2017-Oct-15 07:26N 29°03' W 013°24'  
Track history (hours):
 
Tides and Currents Weather Stations Pressure Air Temp Water Temp Dewpoint Dewpoint Depression Visibility Wind Speed Wind Dir Waves Ship Positions

Magic Star

Last reported at 2017-Oct-21 10:20 UTC. Time now 2017-Dec-14 02:42 UTC.
Position N 27°55' W 016°11'.
Warning: this ship's position is 53 days out of date.

Length 17 m.

Type: Sailing vessel. MMSI: 211536060.

Date/timePositionNaut miles runAvg speedWind from/ knotsBaromVisibWave heightAir tempDewpointWater temp
2017-Oct-21 10:20N 27°55' W 016°11'32 1.6
2017-Oct-20 13:44N 28°01' W 016°47'1 4.3
2017-Oct-20 13:29N 28°02' W 016°48'15 4.8
2017-Oct-20 10:23N 28°05' W 017°05'  
2017-Oct-17 05:06N 28°46' W 015°38'4 8.2
2017-Oct-17 04:37N 28°46' W 015°34'3 7.5
2017-Oct-17 04:16N 28°46' W 015°31'2 7.6
2017-Oct-17 04:00N 28°46' W 015°29'6 7.6
2017-Oct-17 03:14N 28°47' W 015°22'2 7.7
2017-Oct-17 03:00N 28°47' W 015°20'4 8.1
2017-Oct-17 02:30N 28°47' W 015°15'4 7.6
2017-Oct-17 01:59N 28°47' W 015°11'3 5.7
2017-Oct-17 01:30N 28°47' W 015°08'3 5.4
2017-Oct-17 01:00N 28°47' W 015°05'3 5.0
2017-Oct-17 00:29N 28°47' W 015°02'2 4.9
2017-Oct-17 00:00N 28°48' W 014°59'2 4.7
2017-Oct-16 23:30N 28°48' W 014°56'2 4.6
2017-Oct-16 23:00N 28°48' W 014°54'2 4.8
2017-Oct-16 22:29N 28°48' W 014°51'3 5.1
2017-Oct-16 22:00N 28°49' W 014°48'2 4.8
2017-Oct-16 21:30N 28°49' W 014°45'2 4.4
2017-Oct-16 21:00N 28°49' W 014°43'2 4.8
2017-Oct-16 20:30N 28°49' W 014°40'3 5.4
2017-Oct-16 19:59N 28°50' W 014°37'3 5.8
2017-Oct-16 19:30N 28°50' W 014°34'3 5.3
2017-Oct-16 19:00N 28°50' W 014°31'3 5.3
2017-Oct-16 18:27N 28°50' W 014°27'3 5.8
2017-Oct-16 17:56N 28°50' W 014°24'3 5.9
2017-Oct-16 17:26N 28°50' W 014°21'2 5.4
2017-Oct-16 16:59N 28°50' W 014°18'3 5.1
2017-Oct-16 16:28N 28°50' W 014°15'4 5.3
2017-Oct-16 15:40N 28°50' W 014°10'1 5.6
2017-Oct-16 15:29N 28°50' W 014°09'3 5.6
2017-Oct-16 14:58N 28°50' W 014°06'15 2.6
2017-Oct-16 09:22N 28°51' W 013°49'0 0.0
2017-Oct-16 08:52N 28°51' W 013°49'0 0.0
2017-Oct-16 04:40N 28°51' W 013°49'0 0.0
2017-Oct-16 04:25N 28°51' W 013°49'0 0.0
2017-Oct-16 03:58N 28°51' W 013°49'0 0.0
2017-Oct-16 03:28N 28°51' W 013°49'0 0.0
2017-Oct-16 02:58N 28°51' W 013°49'0 0.0
2017-Oct-16 02:28N 28°51' W 013°49'0 0.0
2017-Oct-16 01:55N 28°51' W 013°49'0 0.0
2017-Oct-16 00:46N 28°51' W 013°49'0 0.0
2017-Oct-16 00:16N 28°51' W 013°49'0 0.0
2017-Oct-15 23:58N 28°51' W 013°49'0 0.0
2017-Oct-15 21:49N 28°51' W 013°49'0 0.0
2017-Oct-15 19:16N 28°51' W 013°49'0 0.0
2017-Oct-15 18:52N 28°51' W 013°49'0 0.0
2017-Oct-15 18:22N 28°51' W 013°49'0 0.0
2017-Oct-15 17:52N 28°51' W 013°49'0 0.0
2017-Oct-15 17:22N 28°51' W 013°49'0 0.0
2017-Oct-15 16:55N 28°51' W 013°49'7 1.1
2017-Oct-15 10:29N 28°52' W 013°41'4 6.1
2017-Oct-15 09:53N 28°54' W 013°37'2 6.0
2017-Oct-15 09:30N 28°55' W 013°35'3 5.8
2017-Oct-15 09:00N 28°57' W 013°32'3 6.1
2017-Oct-15 08:29N 28°58' W 013°29'3 6.4
2017-Oct-15 07:59N 29°01' W 013°26'3 6.3
2017-Oct-15 07:26N 29°03' W 013°24'  

Dump ship's entire track history